sensor_id;sensor_type;location;lat;lon;timestamp;pressure;altitude;pressure_sealevel;temperature;humidity
38054;BME280;23859;50.672;7.164;2024-02-26T00:01:57;36064.88;;;-140.95;64.77
38054;BME280;23859;50.672;7.164;2024-02-26T00:04:23;36042.78;;;-140.95;62.23
38054;BME280;23859;50.672;7.164;2024-02-26T00:06:49;36030.72;;;-140.95;60.58
38054;BME280;23859;50.672;7.164;2024-02-26T00:09:17;36044.78;;;-140.95;59.60
38054;BME280;23859;50.672;7.164;2024-02-26T00:11:43;36078.94;;;-140.95;59.76
38054;BME280;23859;50.672;7.164;2024-02-26T00:14:09;36008.63;;;-140.95;59.50
38054;BME280;23859;50.672;7.164;2024-02-26T00:16:35;36004.59;;;-140.95;58.11
38054;BME280;23859;50.672;7.164;2024-02-26T00:19:01;36032.72;;;-140.95;58.26
38054;BME280;23859;50.672;7.164;2024-02-26T00:21:28;35996.56;;;-140.95;58.34
38054;BME280;23859;50.672;7.164;2024-02-26T00:23:54;36008.63;;;-140.95;58.02
38054;BME280;23859;50.672;7.164;2024-02-26T00:26:20;36004.59;;;-140.95;59.15
38054;BME280;23859;50.672;7.164;2024-02-26T00:28:46;35996.56;;;-140.95;58.18
38054;BME280;23859;50.672;7.164;2024-02-26T00:31:13;36022.69;;;-140.95;57.69
38054;BME280;23859;50.672;7.164;2024-02-26T00:33:39;36020.69;;;-140.95;57.56
38054;BME280;23859;50.672;7.164;2024-02-26T00:36:05;36026.69;;;-140.95;56.48
38054;BME280;23859;50.672;7.164;2024-02-26T00:38:31;36000.59;;;-140.95;56.05
38054;BME280;23859;50.672;7.164;2024-02-26T00:40:57;36020.69;;;-140.95;55.90
38054;BME280;23859;50.672;7.164;2024-02-26T00:43:23;35984.50;;;-140.95;56.62
38054;BME280;23859;50.672;7.164;2024-02-26T00:45:49;35974.47;;;-140.95;56.63
38054;BME280;23859;50.672;7.164;2024-02-26T00:48:15;35986.53;;;-140.95;56.47
38054;BME280;23859;50.672;7.164;2024-02-26T00:50:41;35988.53;;;-140.95;56.53
38054;BME280;23859;50.672;7.164;2024-02-26T00:53:08;35992.53;;;-140.95;57.28
38054;BME280;23859;50.672;7.164;2024-02-26T00:55:34;36006.59;;;-140.95;57.34
38054;BME280;23859;50.672;7.164;2024-02-26T00:58:00;36016.66;;;-140.95;58.19
38054;BME280;23859;50.672;7.164;2024-02-26T01:00:26;36004.59;;;-140.95;59.07
38054;BME280;23859;50.672;7.164;2024-02-26T01:02:53;35988.53;;;-140.95;58.18
38054;BME280;23859;50.672;7.164;2024-02-26T01:05:19;36012.63;;;-140.95;58.92
38054;BME280;23859;50.672;7.164;2024-02-26T01:07:45;35992.53;;;-140.95;58.22
38054;BME280;23859;50.672;7.164;2024-02-26T01:10:11;35974.47;;;-140.95;58.76
38054;BME280;23859;50.672;7.164;2024-02-26T01:12:37;36028.72;;;-140.95;59.62
38054;BME280;23859;50.672;7.164;2024-02-26T01:15:03;36028.72;;;-140.95;60.83
38054;BME280;23859;50.672;7.164;2024-02-26T01:17:30;36032.72;;;-140.95;61.11
38054;BME280;23859;50.672;7.164;2024-02-26T01:19:56;36004.59;;;-140.95;61.77
38054;BME280;23859;50.672;7.164;2024-02-26T01:22:22;35992.53;;;-140.95;59.60
38054;BME280;23859;50.672;7.164;2024-02-26T01:24:50;36000.59;;;-140.95;59.57
38054;BME280;23859;50.672;7.164;2024-02-26T01:27:16;35990.53;;;-140.95;58.69
38054;BME280;23859;50.672;7.164;2024-02-26T01:29:42;36008.63;;;-140.95;59.38
38054;BME280;23859;50.672;7.164;2024-02-26T01:32:08;35998.56;;;-140.95;59.34
38054;BME280;23859;50.672;7.164;2024-02-26T01:34:34;36000.59;;;-140.95;58.93
38054;BME280;23859;50.672;7.164;2024-02-26T01:37:02;36018.66;;;-140.95;59.36
38054;BME280;23859;50.672;7.164;2024-02-26T01:39:29;36008.63;;;-140.95;58.36
38054;BME280;23859;50.672;7.164;2024-02-26T01:41:56;35990.53;;;-140.95;59.80
38054;BME280;23859;50.672;7.164;2024-02-26T01:44:22;36024.69;;;-140.95;58.99
38054;BME280;23859;50.672;7.164;2024-02-26T01:46:48;36022.69;;;-140.95;59.28
38054;BME280;23859;50.672;7.164;2024-02-26T01:49:15;35988.53;;;-140.95;58.73
38054;BME280;23859;50.672;7.164;2024-02-26T01:51:42;36014.66;;;-140.95;58.83
38054;BME280;23859;50.672;7.164;2024-02-26T01:54:11;35974.47;;;-140.95;57.69
38054;BME280;23859;50.672;7.164;2024-02-26T01:56:38;36113.09;;;-140.95;56.94
38054;BME280;23859;50.672;7.164;2024-02-26T01:59:05;36006.59;;;-140.95;56.55
38054;BME280;23859;50.672;7.164;2024-02-26T02:01:34;35980.50;;;-140.95;56.99
38054;BME280;23859;50.672;7.164;2024-02-26T02:04:01;36006.59;;;-140.95;57.47
38054;BME280;23859;50.672;7.164;2024-02-26T02:06:27;35994.56;;;-140.95;57.06
38054;BME280;23859;50.672;7.164;2024-02-26T02:08:55;36006.59;;;-140.95;57.64
38054;BME280;23859;50.672;7.164;2024-02-26T02:11:21;36012.63;;;-140.95;57.67
38054;BME280;23859;50.672;7.164;2024-02-26T02:13:47;35996.56;;;-140.95;56.99
38054;BME280;23859;50.672;7.164;2024-02-26T02:16:14;35968.44;;;-140.95;56.32
38054;BME280;23859;50.672;7.164;2024-02-26T02:18:40;35976.47;;;-140.95;56.49
38054;BME280;23859;50.672;7.164;2024-02-26T02:21:06;35976.47;;;-140.95;57.04
38054;BME280;23859;50.672;7.164;2024-02-26T02:23:32;35978.47;;;-140.95;56.97
38054;BME280;23859;50.672;7.164;2024-02-26T02:25:59;35968.44;;;-140.95;56.70
38054;BME280;23859;50.672;7.164;2024-02-26T02:28:27;36006.59;;;-140.95;57.29
38054;BME280;23859;50.672;7.164;2024-02-26T02:30:53;36000.59;;;-140.95;56.29
38054;BME280;23859;50.672;7.164;2024-02-26T02:33:20;35976.47;;;-140.95;57.00
38054;BME280;23859;50.672;7.164;2024-02-26T02:35:46;35988.53;;;-140.95;57.32
38054;BME280;23859;50.672;7.164;2024-02-26T02:38:12;35964.41;;;-140.95;58.30
38054;BME280;23859;50.672;7.164;2024-02-26T02:40:38;36004.59;;;-140.95;59.88
38054;BME280;23859;50.672;7.164;2024-02-26T02:43:04;35996.56;;;-140.95;60.90
38054;BME280;23859;50.672;7.164;2024-02-26T02:45:31;36024.69;;;-140.95;63.92
38054;BME280;23859;50.672;7.164;2024-02-26T02:47:57;36040.78;;;-140.95;65.93
38054;BME280;23859;50.672;7.164;2024-02-26T02:50:23;36064.88;;;-140.95;66.35
38054;BME280;23859;50.672;7.164;2024-02-26T02:52:49;36022.69;;;-140.95;68.60
38054;BME280;23859;50.672;7.164;2024-02-26T02:55:16;36080.97;;;-140.95;68.82
38054;BME280;23859;50.672;7.164;2024-02-26T02:57:42;36084.97;;;-140.95;69.96
38054;BME280;23859;50.672;7.164;2024-02-26T03:00:12;36056.84;;;-140.95;70.17
38054;BME280;23859;50.672;7.164;2024-02-26T03:02:38;36064.88;;;-140.95;70.74
38054;BME280;23859;50.672;7.164;2024-02-26T03:05:04;36089.00;;;-140.95;73.22
38054;BME280;23859;50.672;7.164;2024-02-26T03:07:31;36068.91;;;-140.95;73.56
38054;BME280;23859;50.672;7.164;2024-02-26T03:09:57;36105.06;;;-140.95;73.86
38054;BME280;23859;50.672;7.164;2024-02-26T03:12:23;36086.97;;;-140.95;75.89
38054;BME280;23859;50.672;7.164;2024-02-26T03:14:49;36125.16;;;-140.95;76.46
38054;BME280;23859;50.672;7.164;2024-02-26T03:17:15;36105.06;;;-140.95;76.73
38054;BME280;23859;50.672;7.164;2024-02-26T03:19:41;36086.97;;;-140.95;78.31
38054;BME280;23859;50.672;7.164;2024-02-26T03:22:09;36072.91;;;-140.95;79.35
38054;BME280;23859;50.672;7.164;2024-02-26T03:24:35;36076.94;;;-140.95;81.09
38054;BME280;23859;50.672;7.164;2024-02-26T03:27:01;36093.00;;;-140.95;81.91
38054;BME280;23859;50.672;7.164;2024-02-26T03:29:27;36086.97;;;-140.95;82.39
38054;BME280;23859;50.672;7.164;2024-02-26T03:31:54;36101.03;;;-140.95;83.65
38054;BME280;23859;50.672;7.164;2024-02-26T03:34:20;36113.09;;;-140.95;85.03
38054;BME280;23859;50.672;7.164;2024-02-26T03:36:46;36109.09;;;-140.95;85.47
38054;BME280;23859;50.672;7.164;2024-02-26T03:39:12;36127.16;;;-140.95;85.67
38054;BME280;23859;50.672;7.164;2024-02-26T03:41:38;36091.00;;;-140.95;86.21
38054;BME280;23859;50.672;7.164;2024-02-26T03:44:04;34487.88;;;-140.95;86.40
38054;BME280;23859;50.672;7.164;2024-02-26T03:46:30;36107.06;;;-140.95;86.59
38054;BME280;23859;50.672;7.164;2024-02-26T03:48:56;36101.03;;;-140.95;85.81
38054;BME280;23859;50.672;7.164;2024-02-26T03:51:22;36076.94;;;-140.95;85.30
38054;BME280;23859;50.672;7.164;2024-02-26T03:53:48;36103.06;;;-140.95;83.80
38054;BME280;23859;50.672;7.164;2024-02-26T03:56:14;36113.09;;;-140.95;83.13
38054;BME280;23859;50.672;7.164;2024-02-26T03:58:40;36101.03;;;-140.95;80.92
38054;BME280;23859;50.672;7.164;2024-02-26T04:01:09;36093.00;;;-140.95;81.25
38054;BME280;23859;50.672;7.164;2024-02-26T04:03:36;36099.03;;;-140.95;81.03
38054;BME280;23859;50.672;7.164;2024-02-26T04:06:02;36113.09;;;-140.95;80.10
38054;BME280;23859;50.672;7.164;2024-02-26T04:08:29;36414.50;;;-140.95;81.03
38054;BME280;23859;50.672;7.164;2024-02-26T04:10:55;36105.06;;;-140.95;82.37
38054;BME280;23859;50.672;7.164;2024-02-26T04:13:21;36127.16;;;-140.95;81.61
38054;BME280;23859;50.672;7.164;2024-02-26T04:15:47;36089.00;;;-140.95;81.14
38054;BME280;23859;50.672;7.164;2024-02-26T04:18:13;36125.16;;;-140.95;82.48
38054;BME280;23859;50.672;7.164;2024-02-26T04:20:40;36105.06;;;-140.95;83.12
38054;BME280;23859;50.672;7.164;2024-02-26T04:23:08;36380.34;;;-140.95;83.55
38054;BME280;23859;50.672;7.164;2024-02-26T04:25:34;36101.03;;;-140.95;84.27
38054;BME280;23859;50.672;7.164;2024-02-26T04:28:00;36105.06;;;-140.95;85.03
38054;BME280;23859;50.672;7.164;2024-02-26T04:30:26;36117.13;;;-140.95;84.73
38054;BME280;23859;50.672;7.164;2024-02-26T04:32:52;36121.13;;;-140.95;85.77
38054;BME280;23859;50.672;7.164;2024-02-26T04:35:18;36137.22;;;-140.95;85.28
38054;BME280;23859;50.672;7.164;2024-02-26T04:37:44;36137.22;;;-140.95;86.29
38054;BME280;23859;50.672;7.164;2024-02-26T04:40:10;36093.00;;;-140.95;86.25
38054;BME280;23859;50.672;7.164;2024-02-26T04:42:36;36093.00;;;-140.95;87.11
38054;BME280;23859;50.672;7.164;2024-02-26T04:45:03;36113.09;;;-140.95;87.05
38054;BME280;23859;50.672;7.164;2024-02-26T04:47:29;36109.09;;;-140.95;87.59
38054;BME280;23859;50.672;7.164;2024-02-26T04:49:55;36105.06;;;-140.95;87.57
38054;BME280;23859;50.672;7.164;2024-02-26T04:52:21;36149.28;;;-140.95;87.65
38054;BME280;23859;50.672;7.164;2024-02-26T04:54:48;36109.09;;;-140.95;87.15
38054;BME280;23859;50.672;7.164;2024-02-26T04:57:14;36133.19;;;-140.95;86.87
38054;BME280;23859;50.672;7.164;2024-02-26T04:59:40;36117.13;;;-140.95;86.89
38054;BME280;23859;50.672;7.164;2024-02-26T05:02:08;36141.22;;;-140.95;87.66
38054;BME280;23859;50.672;7.164;2024-02-26T05:04:34;36115.13;;;-140.95;87.78
38054;BME280;23859;50.672;7.164;2024-02-26T05:07:00;36145.25;;;-140.95;87.68
38054;BME280;23859;50.672;7.164;2024-02-26T05:09:26;36123.16;;;-140.95;88.44
38054;BME280;23859;50.672;7.164;2024-02-26T05:11:52;36129.19;;;-140.95;86.76
38054;BME280;23859;50.672;7.164;2024-02-26T05:14:18;36113.09;;;-140.95;85.66
38054;BME280;23859;50.672;7.164;2024-02-26T05:16:44;36115.13;;;-140.95;86.18
38054;BME280;23859;50.672;7.164;2024-02-26T05:19:10;36095.03;;;-140.95;85.30
38054;BME280;23859;50.672;7.164;2024-02-26T05:21:36;36137.22;;;-140.95;85.84
38054;BME280;23859;50.672;7.164;2024-02-26T05:24:03;36125.16;;;-140.95;85.26
38054;BME280;23859;50.672;7.164;2024-02-26T05:26:29;36121.13;;;-140.95;85.97
38054;BME280;23859;50.672;7.164;2024-02-26T05:31:31;36113.09;;;-140.95;86.35
38054;BME280;23859;50.672;7.164;2024-02-26T05:33:57;36097.03;;;-140.95;87.13
38054;BME280;23859;50.672;7.164;2024-02-26T05:36:24;36125.16;;;-140.95;85.41
38054;BME280;23859;50.672;7.164;2024-02-26T05:38:51;36165.34;;;-140.95;86.43
38054;BME280;23859;50.672;7.164;2024-02-26T05:41:18;36153.28;;;-140.95;86.34
38054;BME280;23859;50.672;7.164;2024-02-26T05:43:49;36308.00;;;-140.95;86.85
38054;BME280;23859;50.672;7.164;2024-02-26T05:46:19;36109.09;;;-140.95;86.55
38054;BME280;23859;50.672;7.164;2024-02-26T05:48:48;36115.13;;;-140.95;86.74
38054;BME280;23859;50.672;7.164;2024-02-26T05:51:17;36127.16;;;-140.95;87.44
38054;BME280;23859;50.672;7.164;2024-02-26T05:53:52;36117.13;;;-140.95;87.23
38054;BME280;23859;50.672;7.164;2024-02-26T05:56:23;36137.22;;;-140.95;87.36
38054;BME280;23859;50.672;7.164;2024-02-26T05:58:50;36151.28;;;-140.95;87.25
38054;BME280;23859;50.672;7.164;2024-02-26T06:01:16;36129.19;;;-140.95;87.33
38054;BME280;23859;50.672;7.164;2024-02-26T06:06:21;36123.16;;;-140.95;87.46
38054;BME280;23859;50.672;7.164;2024-02-26T06:14:36;36145.25;;;-140.95;88.07
38054;BME280;23859;50.672;7.164;2024-02-26T06:17:02;36149.28;;;-140.95;88.37
38054;BME280;23859;50.672;7.164;2024-02-26T06:19:28;36135.22;;;-140.95;88.42
38054;BME280;23859;50.672;7.164;2024-02-26T06:21:54;36157.31;;;-140.95;89.14
38054;BME280;23859;50.672;7.164;2024-02-26T06:24:20;36127.16;;;-140.95;88.96
38054;BME280;23859;50.672;7.164;2024-02-26T06:26:48;36163.34;;;-140.95;89.05
38054;BME280;23859;50.672;7.164;2024-02-26T06:29:14;36137.22;;;-140.95;88.42
38054;BME280;23859;50.672;7.164;2024-02-26T06:31:40;36157.31;;;-140.95;88.05
38054;BME280;23859;50.672;7.164;2024-02-26T06:34:06;36127.16;;;-140.95;88.93
38054;BME280;23859;50.672;7.164;2024-02-26T06:36:32;36121.13;;;-140.95;89.42
38054;BME280;23859;50.672;7.164;2024-02-26T06:41:35;36189.47;;;-140.95;90.03
38054;BME280;23859;50.672;7.164;2024-02-26T06:44:02;36171.38;;;-140.95;90.45
38054;BME280;23859;50.672;7.164;2024-02-26T06:46:28;36161.31;;;-140.95;90.52
38054;BME280;23859;50.672;7.164;2024-02-26T06:48:56;36153.28;;;-140.95;90.80
38054;BME280;23859;50.672;7.164;2024-02-26T06:51:23;36159.31;;;-140.95;91.15
38054;BME280;23859;50.672;7.164;2024-02-26T06:54:04;36149.28;;;-140.95;91.24
38054;BME280;23859;50.672;7.164;2024-02-26T06:56:30;36165.34;;;-140.95;91.54
38054;BME280;23859;50.672;7.164;2024-02-26T06:58:56;36161.31;;;-140.95;91.81
38054;BME280;23859;50.672;7.164;2024-02-26T07:01:22;36141.22;;;-140.95;91.50
38054;BME280;23859;50.672;7.164;2024-02-26T07:03:48;36137.22;;;-140.95;91.33
38054;BME280;23859;50.672;7.164;2024-02-26T07:06:14;36141.22;;;-140.95;91.46
38054;BME280;23859;50.672;7.164;2024-02-26T07:08:40;36167.34;;;-140.95;91.24
38054;BME280;23859;50.672;7.164;2024-02-26T07:11:10;36149.28;;;-140.95;91.40
38054;BME280;23859;50.672;7.164;2024-02-26T07:13:36;36145.25;;;-140.95;91.65
38054;BME280;23859;50.672;7.164;2024-02-26T07:16:02;36145.25;;;-140.95;91.77
38054;BME280;23859;50.672;7.164;2024-02-26T07:18:28;36143.25;;;-140.95;91.16
38054;BME280;23859;50.672;7.164;2024-02-26T07:20:54;36127.16;;;-140.95;91.15
38054;BME280;23859;50.672;7.164;2024-02-26T07:23:21;36169.38;;;-140.95;91.14
38054;BME280;23859;50.672;7.164;2024-02-26T07:25:47;36137.22;;;-140.95;91.58
38054;BME280;23859;50.672;7.164;2024-02-26T07:28:15;36117.13;;;-140.95;91.41
38054;BME280;23859;50.672;7.164;2024-02-26T07:30:41;36129.19;;;-140.95;91.05
38054;BME280;23859;50.672;7.164;2024-02-26T07:33:07;36149.28;;;-140.95;91.83
38054;BME280;23859;50.672;7.164;2024-02-26T07:35:33;36137.22;;;-140.95;92.29
38054;BME280;23859;50.672;7.164;2024-02-26T07:37:59;36119.13;;;-140.95;92.47
38054;BME280;23859;50.672;7.164;2024-02-26T07:40:25;36145.25;;;-140.95;92.72
38054;BME280;23859;50.672;7.164;2024-02-26T07:42:51;36107.06;;;-140.95;92.31
38054;BME280;23859;50.672;7.164;2024-02-26T07:45:18;36137.22;;;-140.95;92.51
38054;BME280;23859;50.672;7.164;2024-02-26T07:47:46;36161.31;;;-140.95;92.07
38054;BME280;23859;50.672;7.164;2024-02-26T07:50:12;36105.06;;;-140.95;92.34
38054;BME280;23859;50.672;7.164;2024-02-26T07:52:39;36107.06;;;-140.95;92.82
38054;BME280;23859;50.672;7.164;2024-02-26T07:55:06;36133.19;;;-140.95;92.58
38054;BME280;23859;50.672;7.164;2024-02-26T07:57:35;36149.28;;;-140.95;92.27
38054;BME280;23859;50.672;7.164;2024-02-26T08:00:02;36125.16;;;-140.95;91.89
38054;BME280;23859;50.672;7.164;2024-02-26T08:02:29;36097.03;;;-140.95;91.90
38054;BME280;23859;50.672;7.164;2024-02-26T08:04:55;36129.19;;;-140.95;92.40
38054;BME280;23859;50.672;7.164;2024-02-26T08:07:21;36149.28;;;-140.95;92.34
38054;BME280;23859;50.672;7.164;2024-02-26T08:09:47;36145.25;;;-140.95;92.45
38054;BME280;23859;50.672;7.164;2024-02-26T08:12:14;36137.22;;;-140.95;92.63
38054;BME280;23859;50.672;7.164;2024-02-26T08:14:40;36107.06;;;-140.95;92.66
38054;BME280;23859;50.672;7.164;2024-02-26T08:17:06;36117.13;;;-140.95;92.73
38054;BME280;23859;50.672;7.164;2024-02-26T08:19:33;36125.16;;;-140.95;92.74
38054;BME280;23859;50.672;7.164;2024-02-26T08:22:01;36115.13;;;-140.95;92.76
38054;BME280;23859;50.672;7.164;2024-02-26T08:24:27;36117.13;;;-140.95;92.93
38054;BME280;23859;50.672;7.164;2024-02-26T08:26:54;36121.13;;;-140.95;93.00
38054;BME280;23859;50.672;7.164;2024-02-26T08:29:20;36125.16;;;-140.95;93.03
38054;BME280;23859;50.672;7.164;2024-02-26T08:31:46;36107.06;;;-140.95;92.79
38054;BME280;23859;50.672;7.164;2024-02-26T08:34:12;36105.06;;;-140.95;92.70
38054;BME280;23859;50.672;7.164;2024-02-26T08:36:38;36125.16;;;-140.95;92.63
38054;BME280;23859;50.672;7.164;2024-02-26T08:39:04;36101.03;;;-140.95;92.70
38054;BME280;23859;50.672;7.164;2024-02-26T08:41:30;36123.16;;;-140.95;92.85
38054;BME280;23859;50.672;7.164;2024-02-26T08:43:56;36093.00;;;-140.95;92.93
38054;BME280;23859;50.672;7.164;2024-02-26T08:46:24;36165.34;;;-140.95;92.66
38054;BME280;23859;50.672;7.164;2024-02-26T08:48:50;36103.06;;;-140.95;92.67
38054;BME280;23859;50.672;7.164;2024-02-26T08:51:16;36137.22;;;-140.95;92.67
38054;BME280;23859;50.672;7.164;2024-02-26T08:53:42;36103.06;;;-140.95;92.78
38054;BME280;23859;50.672;7.164;2024-02-26T08:56:09;36093.00;;;-140.95;93.05
38054;BME280;23859;50.672;7.164;2024-02-26T08:58:35;36101.03;;;-140.95;93.14
38054;BME280;23859;50.672;7.164;2024-02-26T09:01:01;36086.97;;;-140.95;92.82
38054;BME280;23859;50.672;7.164;2024-02-26T09:03:28;36097.03;;;-140.95;92.76
38054;BME280;23859;50.672;7.164;2024-02-26T09:05:54;36095.03;;;-140.95;92.26
38054;BME280;23859;50.672;7.164;2024-02-26T09:08:20;36074.94;;;-140.95;92.11
38054;BME280;23859;50.672;7.164;2024-02-26T09:10:47;36103.06;;;-140.95;92.35
38054;BME280;23859;50.672;7.164;2024-02-26T09:13:14;36101.03;;;-140.95;92.48
38054;BME280;23859;50.672;7.164;2024-02-26T09:15:40;36111.09;;;-140.95;92.74
38054;BME280;23859;50.672;7.164;2024-02-26T09:18:06;36072.91;;;-140.95;92.60
38054;BME280;23859;50.672;7.164;2024-02-26T09:20:32;36105.06;;;-140.95;92.53
38054;BME280;23859;50.672;7.164;2024-02-26T09:22:58;36109.09;;;-140.95;92.77
38054;BME280;23859;50.672;7.164;2024-02-26T09:25:24;36080.97;;;-140.95;92.42
38054;BME280;23859;50.672;7.164;2024-02-26T09:27:50;36076.94;;;-140.95;92.06
38054;BME280;23859;50.672;7.164;2024-02-26T09:30:16;36068.91;;;-140.95;92.34
38054;BME280;23859;50.672;7.164;2024-02-26T09:32:46;36044.78;;;-140.95;92.43
38054;BME280;23859;50.672;7.164;2024-02-26T09:35:14;57739.34;;;-140.95;100.00
38054;BME280;23859;50.672;7.164;2024-02-26T09:37:40;36052.81;;;-140.95;92.30
38054;BME280;23859;50.672;7.164;2024-02-26T09:40:06;36050.81;;;-140.95;92.47
38054;BME280;23859;50.672;7.164;2024-02-26T09:42:32;36040.78;;;-140.95;92.70
38054;BME280;23859;50.672;7.164;2024-02-26T09:45:00;36072.91;;;-140.95;92.71
38054;BME280;23859;50.672;7.164;2024-02-26T09:47:32;36070.91;;;-140.95;92.88
38054;BME280;23859;50.672;7.164;2024-02-26T09:49:59;36099.03;;;-140.95;92.79
38054;BME280;23859;50.672;7.164;2024-02-26T09:52:29;57739.34;;;-140.95;100.00
38054;BME280;23859;50.672;7.164;2024-02-26T09:54:56;36054.84;;;-140.95;92.66
38054;BME280;23859;50.672;7.164;2024-02-26T09:57:23;36052.81;;;-140.95;92.37
38054;BME280;23859;50.672;7.164;2024-02-26T09:59:53;36046.78;;;-140.95;92.23
38054;BME280;23859;50.672;7.164;2024-02-26T10:02:20;36018.66;;;-140.95;92.23
38054;BME280;23859;50.672;7.164;2024-02-26T10:04:47;36020.69;;;-140.95;92.04
38054;BME280;23859;50.672;7.164;2024-02-26T10:07:17;36012.63;;;-140.95;90.93
38054;BME280;23859;50.672;7.164;2024-02-26T10:09:43;35974.47;;;-140.95;90.13
38054;BME280;23859;50.672;7.164;2024-02-26T10:12:10;35984.50;;;-140.95;91.12
38054;BME280;23859;50.672;7.164;2024-02-26T10:14:37;35972.44;;;-140.95;91.47
38054;BME280;23859;50.672;7.164;2024-02-26T10:17:06;35926.25;;;-140.95;91.46
38054;BME280;23859;50.672;7.164;2024-02-26T10:19:34;35916.19;;;-140.95;87.69
38054;BME280;23859;50.672;7.164;2024-02-26T10:22:01;35960.41;;;-140.95;88.67
38054;BME280;23859;50.672;7.164;2024-02-26T10:24:28;35952.34;;;-140.95;88.05
38054;BME280;23859;50.672;7.164;2024-02-26T10:26:55;35912.19;;;-140.95;88.79
38054;BME280;23859;50.672;7.164;2024-02-26T10:29:24;35966.44;;;-140.95;89.16
38054;BME280;23859;50.672;7.164;2024-02-26T10:31:53;36454.72;;;-140.95;88.37
38054;BME280;23859;50.672;7.164;2024-02-26T10:34:20;35968.44;;;-140.95;88.21
38054;BME280;23859;50.672;7.164;2024-02-26T10:36:47;35972.44;;;-140.95;87.82
38054;BME280;23859;50.672;7.164;2024-02-26T10:39:13;35984.50;;;-140.95;88.07
38054;BME280;23859;50.672;7.164;2024-02-26T10:41:44;35986.53;;;-140.95;86.97
38054;BME280;23859;50.672;7.164;2024-02-26T10:44:12;35956.38;;;-140.95;87.36
38054;BME280;23859;50.672;7.164;2024-02-26T10:46:41;35976.47;;;-140.95;88.25
38054;BME280;23859;50.672;7.164;2024-02-26T10:49:14;35960.41;;;-140.95;87.61
38054;BME280;23859;50.672;7.164;2024-02-26T10:51:45;35972.44;;;-140.95;86.68
38054;BME280;23859;50.672;7.164;2024-02-26T10:54:15;35968.44;;;-140.95;85.30
38054;BME280;23859;50.672;7.164;2024-02-26T10:56:42;35978.47;;;-140.95;86.47
38054;BME280;23859;50.672;7.164;2024-02-26T10:59:10;35988.53;;;-140.95;85.32
38054;BME280;23859;50.672;7.164;2024-02-26T11:01:37;35996.56;;;-140.95;86.17
38054;BME280;23859;50.672;7.164;2024-02-26T11:04:04;35960.41;;;-140.95;84.42
38054;BME280;23859;50.672;7.164;2024-02-26T11:06:32;35962.41;;;-140.95;85.19
38054;BME280;23859;50.672;7.164;2024-02-26T11:09:01;36000.59;;;-140.95;85.03
38054;BME280;23859;50.672;7.164;2024-02-26T11:11:28;35988.53;;;-140.95;85.35
38054;BME280;23859;50.672;7.164;2024-02-26T11:13:56;36006.59;;;-140.95;85.56
38054;BME280;23859;50.672;7.164;2024-02-26T11:16:24;36032.72;;;-140.95;85.70
38054;BME280;23859;50.672;7.164;2024-02-26T11:18:53;36050.81;;;-140.95;86.32
38054;BME280;23859;50.672;7.164;2024-02-26T11:21:21;36040.78;;;-140.95;86.93
38054;BME280;23859;50.672;7.164;2024-02-26T11:24:05;36024.69;;;-140.95;85.70
38054;BME280;23859;50.672;7.164;2024-02-26T11:26:33;36028.72;;;-140.95;85.51
38054;BME280;23859;50.672;7.164;2024-02-26T11:29:02;36056.84;;;-140.95;86.74
38054;BME280;23859;50.672;7.164;2024-02-26T11:31:29;36032.72;;;-140.95;85.94
38054;BME280;23859;50.672;7.164;2024-02-26T11:33:56;36064.88;;;-140.95;86.70
38054;BME280;23859;50.672;7.164;2024-02-26T11:36:24;36052.81;;;-140.95;87.31
38054;BME280;23859;50.672;7.164;2024-02-26T11:38:50;36038.75;;;-140.95;88.94
38054;BME280;23859;50.672;7.164;2024-02-26T11:41:18;36030.72;;;-140.95;88.18
38054;BME280;23859;50.672;7.164;2024-02-26T11:43:57;36028.72;;;-140.95;88.54
38054;BME280;23859;50.672;7.164;2024-02-26T11:46:29;36018.66;;;-140.95;88.60
38054;BME280;23859;50.672;7.164;2024-02-26T11:49:00;36038.75;;;-140.95;88.21
38054;BME280;23859;50.672;7.164;2024-02-26T11:51:33;36004.59;;;-140.95;87.00
38054;BME280;23859;50.672;7.164;2024-02-26T11:54:00;35984.50;;;-140.95;86.34
38054;BME280;23859;50.672;7.164;2024-02-26T11:56:26;35988.53;;;-140.95;88.07
38054;BME280;23859;50.672;7.164;2024-02-26T11:59:37;35988.53;;;-140.95;88.59
38054;BME280;23859;50.672;7.164;2024-02-26T12:01:51;36024.69;;;-140.95;88.94
38054;BME280;23859;50.672;7.164;2024-02-26T12:04:27;35974.47;;;-140.95;88.85
38054;BME280;23859;50.672;7.164;2024-02-26T12:07:01;35956.38;;;-140.95;88.80
38054;BME280;23859;50.672;7.164;2024-02-26T12:09:41;35918.19;;;-140.95;87.14
38054;BME280;23859;50.672;7.164;2024-02-26T12:12:09;35944.31;;;-140.95;85.80
38054;BME280;23859;50.672;7.164;2024-02-26T12:14:40;35948.34;;;-140.95;86.95
38054;BME280;23859;50.672;7.164;2024-02-26T12:19:41;35936.28;;;-140.95;87.03
38054;BME280;23859;50.672;7.164;2024-02-26T12:22:07;36082.97;;;-140.95;86.40
38054;BME280;23859;50.672;7.164;2024-02-26T12:24:34;35986.53;;;-140.95;85.58
38054;BME280;23859;50.672;7.164;2024-02-26T12:27:00;35996.56;;;-140.95;86.97
38054;BME280;23859;50.672;7.164;2024-02-26T12:29:26;36010.63;;;-140.95;87.44
38054;BME280;23859;50.672;7.164;2024-02-26T12:31:52;36000.59;;;-140.95;86.42
38054;BME280;23859;50.672;7.164;2024-02-26T12:34:18;36018.66;;;-140.95;87.50
38054;BME280;23859;50.672;7.164;2024-02-26T12:36:45;36040.78;;;-140.95;88.27
38054;BME280;23859;50.672;7.164;2024-02-26T12:39:11;36056.84;;;-140.95;87.74
38054;BME280;23859;50.672;7.164;2024-02-26T12:41:38;36004.59;;;-140.95;88.30
38054;BME280;23859;50.672;7.164;2024-02-26T12:44:05;35996.56;;;-140.95;88.14
38054;BME280;23859;50.672;7.164;2024-02-26T12:46:32;35984.50;;;-140.95;88.64
38054;BME280;23859;50.672;7.164;2024-02-26T12:48:59;36008.63;;;-140.95;87.70
38054;BME280;23859;50.672;7.164;2024-02-26T12:51:28;35986.53;;;-140.95;87.51
38054;BME280;23859;50.672;7.164;2024-02-26T12:53:56;35990.53;;;-140.95;88.06
38054;BME280;23859;50.672;7.164;2024-02-26T12:56:22;36000.59;;;-140.95;88.45